Time;durP1;ratioP1;P1;durP2;ratioP2;P2;SDS_P1;SDS_P2;PMS_P1;PMS_P2;Temp;Humidity;BMP_temperature;BMP_pressure;BME280_temperature;BME280_humidity;BME280_pressure;Samples;Min_cycle;Max_cycle;Signal;HPM_P1;HPM_P2
2022/12/12 00:01:25;;;;;;;24.35;9.23;;;;;;;9.13;100.00;99899.17;1658279;85;21162;-85
2022/12/12 00:03:52;;;;;;;30.32;8.23;;;;;;;9.10;100.00;99891.09;1659454;85;21752;-86
2022/12/12 00:06:20;;;;;;;25.62;8.00;;;;;;;9.11;100.00;99891.91;1650211;85;21164;-85
2022/12/12 00:08:46;;;;;;;22.52;8.53;;;;;;;9.12;100.00;99882.78;1648553;85;21120;-84
2022/12/12 00:11:13;;;;;;;29.25;8.60;;;;;;;9.08;100.00;99885.72;1649805;85;22460;-85
2022/12/12 00:13:39;;;;;;;27.07;8.75;;;;;;;9.06;100.00;99879.83;1665850;85;21039;-85
2022/12/12 00:16:07;;;;;;;23.15;9.20;;;;;;;9.01;100.00;99885.98;1670095;83;21586;-85
2022/12/12 00:18:35;;;;;;;32.85;8.23;;;;;;;9.01;100.00;99878.47;1683763;84;21221;-85
2022/12/12 00:21:05;;;;;;;22.80;8.85;;;;;;;8.99;100.00;99884.64;1682474;85;21716;-84
2022/12/12 00:23:31;;;;;;;26.95;9.98;;;;;;;8.96;100.00;99891.89;1684141;84;21601;-85
2022/12/12 00:26:01;;;;;;;24.07;8.18;;;;;;;8.97;100.00;99890.80;1684316;84;21074;-85
2022/12/12 00:28:28;;;;;;;25.60;8.55;;;;;;;8.98;100.00;99887.87;1685972;84;21062;-85
2022/12/12 00:30:55;;;;;;;28.95;8.75;;;;;;;8.94;100.00;99888.14;1684284;84;21197;-84
2022/12/12 00:33:21;;;;;;;28.00;8.53;;;;;;;8.92;100.00;99889.47;1683947;84;21074;-85
2022/12/12 00:35:52;;;;;;;23.40;8.80;;;;;;;8.92;100.00;99888.13;1684470;84;21054;-85
2022/12/12 00:38:21;;;;;;;24.72;7.78;;;;;;;8.95;100.00;99895.11;1676135;84;21015;-85
2022/12/12 00:40:49;;;;;;;25.92;8.20;;;;;;;8.98;100.00;99898.61;1681162;84;21011;-84
2022/12/12 00:43:15;;;;;;;24.65;8.45;;;;;;;9.00;100.00;99896.48;1681717;84;21542;-85
2022/12/12 00:45:41;;;;;;;22.48;8.05;;;;;;;9.02;100.00;99897.00;1682973;84;21120;-85
2022/12/12 00:48:08;;;;;;;20.40;8.33;;;;;;;9.04;100.00;99895.41;1681913;84;21535;-84
2022/12/12 00:50:35;;;;;;;28.67;8.88;;;;;;;9.02;100.00;99905.06;1683304;84;21115;-85
2022/12/12 00:53:01;;;;;;;26.23;8.50;;;;;;;9.03;100.00;99903.17;1681966;84;21011;-85
2022/12/12 00:55:27;;;;;;;22.02;8.48;;;;;;;9.02;100.00;99887.59;1722887;79;21091;-84
2022/12/12 00:57:53;;;;;;;20.57;7.92;;;;;;;9.02;100.00;99891.63;1784122;80;20980;-83
2022/12/12 01:00:20;;;;;;;23.95;9.10;;;;;;;9.00;100.00;99903.20;1781356;79;21073;-83
2022/12/12 01:02:47;;;;;;;26.25;9.83;;;;;;;9.01;100.00;99899.42;1767064;80;21056;-83
2022/12/12 01:05:14;;;;;;;24.92;9.08;;;;;;;9.02;100.00;99909.63;1775285;79;21129;-83
2022/12/12 01:07:40;;;;;;;24.32;8.58;;;;;;;9.05;100.00;99913.12;1781589;79;21103;-83
2022/12/12 01:10:08;;;;;;;24.30;8.88;;;;;;;9.06;100.00;99918.25;1771778;79;21150;-83
2022/12/12 01:12:35;;;;;;;26.10;9.30;;;;;;;9.06;100.00;99914.77;1783650;79;21001;-82
2022/12/12 01:15:03;;;;;;;25.75;8.53;;;;;;;9.04;100.00;99906.15;1771620;79;21342;-83
2022/12/12 01:17:34;;;;;;;31.73;8.28;;;;;;;9.09;100.00;99903.48;1791768;79;21020;-83
2022/12/12 01:19:56;;;;;;;25.08;9.08;;;;;;;9.12;100.00;99885.47;1782703;79;21016;-83
2022/12/12 01:22:22;;;;;;;27.45;8.20;;;;;;;9.15;100.00;99880.91;1799205;78;21650;-83
2022/12/12 01:24:48;;;;;;;28.57;9.33;;;;;;;9.17;100.00;99888.14;1790838;78;20948;-83
2022/12/12 01:27:14;;;;;;;27.52;9.10;;;;;;;9.14;100.00;99887.88;1765256;78;21546;-83
2022/12/12 01:29:40;;;;;;;33.98;8.85;;;;;;;9.11;100.00;99883.84;1799509;78;20909;-83
2022/12/12 01:32:06;;;;;;;24.67;9.18;;;;;;;9.12;100.00;99898.08;1789833;78;21886;-83
2022/12/12 01:34:32;;;;;;;31.40;9.98;;;;;;;9.11;100.00;99887.88;1793833;79;20940;-83
2022/12/12 01:36:58;;;;;;;28.67;9.50;;;;;;;9.11;100.00;99886.53;1791317;78;21006;-83
2022/12/12 01:39:24;;;;;;;32.38;9.55;;;;;;;9.11;100.00;99886.53;1775630;78;20857;-83
2022/12/12 01:41:50;;;;;;;30.17;9.13;;;;;;;9.06;100.00;99888.69;1792290;79;21459;-84
2022/12/12 01:44:38;;;;;;;30.82;9.03;;;;;;;9.05;100.00;99871.47;1798457;78;21190;-83
2022/12/12 01:47:05;;;;;;;31.00;9.13;;;;;;;9.03;100.00;99881.16;1796644;78;20996;-83
2022/12/12 01:49:33;;;;;;;24.35;8.58;;;;;;;9.01;100.00;99896.73;1813421;77;21031;-83
2022/12/12 01:52:07;;;;;;;28.62;7.90;;;;;;;9.02;100.00;99900.23;1803346;79;21090;-83
2022/12/12 01:54:41;;;;;;;27.77;9.28;;;;;;;9.00;100.00;99901.02;1798267;77;21046;-82
2022/12/12 01:57:12;;;;;;;32.48;9.63;;;;;;;8.98;100.00;99893.23;1768520;78;21114;-83
2022/12/12 01:59:39;;;;;;;25.12;8.73;;;;;;;8.93;100.00;99903.17;1779353;79;21040;-83
2022/12/12 02:02:06;;;;;;;26.62;8.90;;;;;;;8.93;100.00;99904.52;1769336;79;20956;-83
2022/12/12 02:04:33;;;;;;;25.62;9.38;;;;;;;8.90;100.00;99906.39;1790505;79;21433;-83
2022/12/12 02:06:59;;;;;;;26.93;9.30;;;;;;;8.89;100.00;99896.19;1777501;79;21090;-83
2022/12/12 02:09:26;;;;;;;29.32;9.80;;;;;;;8.92;100.00;99899.68;1788015;79;21108;-83
2022/12/12 02:11:55;;;;;;;28.25;9.70;;;;;;;8.91;100.00;99891.33;1787078;79;21032;-83
2022/12/12 02:14:35;;;;;;;29.02;9.03;;;;;;;8.90;100.00;99895.64;1791185;79;20941;-83
2022/12/12 02:17:28;;;;;;;28.38;10.03;;;;;;;8.89;100.00;99898.06;1781893;79;21059;-83
2022/12/12 02:20:16;;;;;;;;;;;;;;;8.94;100.00;99902.09;1768684;80;21207;-82
2022/12/12 02:22:56;;;;;;;32.48;9.25;;;;;;;8.90;100.00;99895.64;1799471;79;21106;-83
2022/12/12 02:25:56;;;;;;;31.62;9.88;;;;;;;8.91;100.00;99886.50;1795696;79;20995;-84
2022/12/12 02:29:05;;;;;;;29.87;9.90;;;;;;;8.85;100.00;99881.14;1809037;77;21107;-83
2022/12/12 02:31:48;;;;;;;27.93;9.95;;;;;;;8.81;100.00;99891.32;1752535;80;21225;-83
2022/12/12 02:34:34;;;;;;;30.75;10.55;;;;;;;8.80;100.00;99881.66;1677060;84;21154;-83
2022/12/12 02:37:13;;;;;;;27.55;10.58;;;;;;;8.79;100.00;99875.45;1688035;83;21583;-83
2022/12/12 02:40:13;;;;;;;32.35;10.50;;;;;;;8.78;100.00;99881.91;1732613;80;21071;-83
2022/12/12 02:43:03;;;;;;;26.30;9.53;;;;;;;8.75;100.00;99876.27;1746952;80;21072;-83
2022/12/12 02:45:44;;;;;;;29.00;9.78;;;;;;;8.70;100.00;99864.95;1745117;80;21041;-84
2022/12/12 02:48:34;;;;;;;30.60;9.60;;;;;;;8.71;100.00;99872.51;1743133;80;21560;-82
2022/12/12 02:51:04;;;;;;;30.27;10.05;;;;;;;8.71;100.00;99882.71;1744341;81;21305;-83
2022/12/12 02:53:30;;;;;;;35.05;10.05;;;;;;;8.69;100.00;99894.25;1716478;82;21070;-83
2022/12/12 02:56:28;;;;;;;32.60;10.70;;;;;;;8.69;100.00;99884.05;1690189;84;21549;-83
2022/12/12 02:58:55;;;;;;;33.55;9.78;;;;;;;8.68;100.00;99893.16;1746509;80;21076;-84
2022/12/12 03:01:54;;;;;;;28.42;9.55;;;;;;;8.70;100.00;99899.08;1741822;81;21048;-83
2022/12/12 03:07:53;;;;;;;29.92;9.78;;;;;;;8.77;100.00;99906.37;1677250;84;21048;-83
2022/12/12 03:10:50;;;;;;;35.08;10.32;;;;;;;8.78;100.00;99909.31;1708795;83;21117;-83
2022/12/12 03:13:48;;;;;;;29.70;10.08;;;;;;;8.80;100.00;99901.27;1719274;83;20991;-83
2022/12/12 03:16:32;;;;;;;34.60;10.23;;;;;;;8.79;100.00;99889.42;1716131;82;21499;-83
2022/12/12 03:19:32;;;;;;;28.42;10.13;;;;;;;8.77;100.00;99892.94;1714912;83;21208;-83
2022/12/12 03:22:04;;;;;;;28.40;9.38;;;;;;;8.81;100.00;99897.50;1677851;84;21225;-83
2022/12/12 03:24:44;;;;;;;33.73;10.40;;;;;;;8.76;100.00;99893.45;1671593;85;21058;-84
2022/12/12 03:27:21;;;;;;;25.23;9.35;;;;;;;8.76;100.00;99900.16;1629175;87;21075;-83
2022/12/12 03:29:53;;;;;;;32.38;10.78;;;;;;;8.76;100.00;99887.27;1633665;86;21027;-83
2022/12/12 03:32:26;;;;;;;33.60;11.28;;;;;;;8.76;100.00;99891.30;1624768;86;22386;-82
2022/12/12 03:35:00;;;;;;;32.75;10.68;;;;;;;8.73;100.00;99891.29;1627203;86;21132;-83
2022/12/12 03:37:38;;;;;;;;;;;;;;;8.73;100.00;99886.45;1603494;88;21029;-83
2022/12/12 03:40:30;;;;;;;31.37;10.88;;;;;;;8.75;100.00;99895.88;1600955;89;20154;-83
2022/12/12 03:43:10;;;;;;;32.78;11.73;;;;;;;8.78;100.00;99890.52;1543598;92;21165;-83
2022/12/12 03:46:12;;;;;;;31.45;11.12;;;;;;;8.74;100.00;99904.21;1545819;92;21383;-83
2022/12/12 03:48:49;;;;;;;32.83;11.20;;;;;;;8.78;100.00;99894.00;1515512;93;21043;-83
2022/12/12 03:51:23;;;;;;;30.77;10.70;;;;;;;8.77;100.00;99893.73;1404460;101;21158;-83
2022/12/12 03:54:00;;;;;;;37.42;12.10;;;;;;;8.73;100.00;99885.92;1372251;103;21144;-83
2022/12/12 03:56:43;;;;;;;35.80;11.50;;;;;;;8.73;100.00;99882.43;1375961;102;21711;-83
2022/12/12 03:59:14;;;;;;;31.35;10.78;;;;;;;8.75;100.00;99886.47;1372096;102;21228;-83
2022/12/12 04:01:55;;;;;;;35.20;11.88;;;;;;;8.75;100.00;99884.33;1345037;106;21233;-83
2022/12/12 04:05:00;;;;;;;34.88;12.30;;;;;;;8.72;100.00;99872.23;1344172;105;21419;-84
2022/12/12 04:07:37;;;;;;;36.68;11.60;;;;;;;8.69;100.00;99878.13;1347821;105;21668;-83
2022/12/12 04:12:58;;;;;;;39.10;13.13;;;;;;;8.63;100.00;99876.50;1347695;105;21297;-83
2022/12/12 04:15:47;;;;;;;33.10;11.90;;;;;;;8.62;100.00;99866.84;1350436;104;21193;-83
2022/12/12 04:18:22;;;;;;;42.13;13.95;;;;;;;8.58;100.00;99867.89;1382906;102;21064;-83
2022/12/12 04:24:20;;;;;;;39.55;12.90;;;;;;;8.51;100.00;99867.88;1402547;100;21131;-84
2022/12/12 04:27:16;;;;;;;38.53;12.98;;;;;;;8.47;100.00;99857.38;1420478;99;21577;-84
2022/12/12 04:29:56;;;;;;;41.60;13.75;;;;;;;8.38;100.00;99871.33;1412139;99;21239;-83
2022/12/12 04:32:30;;;;;;;39.58;12.37;;;;;;;8.33;100.00;99849.00;1414618;99;21159;-84
2022/12/12 04:35:11;;;;;;;48.25;14.05;;;;;;;8.30;100.00;99848.98;1432441;98;21122;-84
2022/12/12 04:37:50;;;;;;;38.20;12.53;;;;;;;8.30;100.00;99849.52;1459529;96;21171;-84
2022/12/12 04:40:22;;;;;;;43.48;13.62;;;;;;;8.26;100.00;99840.37;1490219;94;21645;-84
2022/12/12 04:42:58;;;;;;;39.48;13.18;;;;;;;8.26;100.00;99837.14;1464884;97;21777;-83
2022/12/12 04:45:41;;;;;;;38.13;14.30;;;;;;;8.25;100.00;99844.12;1465489;97;21221;-84
2022/12/12 04:48:11;;;;;;;41.18;13.03;;;;;;;8.25;100.00;99843.59;1517509;91;26748;-84
2022/12/12 04:50:39;;;;;;;46.00;14.10;;;;;;;8.24;100.00;99846.02;1578691;88;21078;-84
2022/12/12 04:53:10;;;;;;;44.27;14.10;;;;;;;8.23;100.00;99839.55;1608733;88;21692;-84
2022/12/12 04:55:41;;;;;;;40.12;13.43;;;;;;;8.25;100.00;99844.12;1609634;86;21590;-84
2022/12/12 04:58:08;;;;;;;40.83;14.33;;;;;;;8.24;100.00;99841.19;1663682;82;21591;-84
2022/12/12 05:00:42;;;;;;;39.48;13.22;;;;;;;8.19;100.00;99841.95;1707722;82;21073;-85
2022/12/12 05:03:22;;;;;;;45.30;13.68;;;;;;;8.17;100.00;99843.55;1728274;81;21456;-84
2022/12/12 05:05:58;;;;;;;42.38;12.70;;;;;;;8.15;100.00;99834.17;1717215;82;21559;-83
2022/12/12 05:08:32;;;;;;;39.63;14.00;;;;;;;8.14;100.00;99835.22;1714128;82;21202;-83
2022/12/12 05:11:04;;;;;;;40.55;12.95;;;;;;;8.12;100.00;99832.02;1728794;82;21058;-82
2022/12/12 05:13:37;;;;;;;43.02;14.13;;;;;;;8.10;100.00;99817.50;1731754;82;21070;-84
2022/12/12 05:16:23;;;;;;;;;;;;;;;8.11;100.00;99822.33;1743569;81;21030;-84
2022/12/12 05:18:49;;;;;;;49.05;13.70;;;;;;;8.07;100.00;99826.08;1721970;82;21072;-83
2022/12/12 05:21:15;;;;;;;44.13;13.20;;;;;;;8.09;100.00;99815.90;1711343;82;21468;-84
2022/12/12 05:23:41;;;;;;;35.88;13.15;;;;;;;8.05;100.00;99828.74;1728994;82;20992;-84
2022/12/12 05:26:18;;;;;;;47.78;14.03;;;;;;;8.06;100.00;99831.19;1730995;81;20986;-84
2022/12/12 05:28:44;;;;;;;47.90;13.53;;;;;;;8.06;100.00;99838.40;1729440;82;21078;-84
2022/12/12 05:31:10;;;;;;;43.30;14.30;;;;;;;8.06;100.00;99848.63;1728955;82;21138;-85
2022/12/12 05:33:36;;;;;;;44.63;13.50;;;;;;;8.04;100.00;99849.95;1741559;82;21016;-85
2022/12/12 05:36:02;;;;;;;44.85;14.13;;;;;;;8.02;100.00;99843.48;1734054;82;20924;-85
2022/12/12 05:38:28;;;;;;;49.63;13.72;;;;;;;8.04;100.00;99864.16;1740292;81;20980;-86
2022/12/12 05:40:54;;;;;;;46.15;12.90;;;;;;;8.07;100.00;99872.23;1770881;78;20860;-86
2022/12/12 05:43:20;;;;;;;43.13;13.55;;;;;;;8.09;100.00;99878.13;1796810;79;21081;-87
2022/12/12 05:45:46;;;;;;;46.02;13.88;;;;;;;8.09;100.00;99876.27;1791504;78;20966;-87
2022/12/12 05:48:12;;;;;;;39.58;14.03;;;;;;;8.11;100.00;99882.16;1791448;78;20883;-87
2022/12/12 05:50:38;;;;;;;50.20;14.98;;;;;;;8.13;100.00;99888.09;1783755;78;20893;-87
2022/12/12 05:53:04;;;;;;;42.05;13.98;;;;;;;8.13;100.00;99888.09;1798007;78;20913;-87
2022/12/12 05:55:30;;;;;;;40.95;13.80;;;;;;;8.14;100.00;99888.35;1795008;78;21091;-87
2022/12/12 05:57:56;;;;;;;43.68;14.10;;;;;;;8.17;100.00;99887.83;1781563;78;20941;-88
2022/12/12 06:00:22;;;;;;;47.78;14.15;;;;;;;8.18;100.00;99887.32;1795544;78;21808;-86
2022/12/12 06:02:48;;;;;;;47.08;14.68;;;;;;;8.18;100.00;99885.44;1797048;79;21486;-86
2022/12/12 06:05:14;;;;;;;43.80;14.18;;;;;;;8.16;100.00;99885.42;1797547;79;21001;-86
2022/12/12 06:07:40;;;;;;;51.85;14.63;;;;;;;8.13;100.00;99887.29;1792130;78;21303;-88
2022/12/12 06:10:08;;;;;;;41.23;13.40;;;;;;;8.10;100.00;99893.98;1781201;78;20920;-87
2022/12/12 06:12:34;;;;;;;39.98;13.30;;;;;;;8.12;100.00;99896.42;1780800;78;21049;-87
2022/12/12 06:15:00;;;;;;;41.55;14.03;;;;;;;8.15;100.00;99898.58;1800164;79;21086;-87
2022/12/12 06:17:26;;;;;;;36.85;12.43;;;;;;;8.15;100.00;99900.72;1801782;77;20858;-87
2022/12/12 06:19:52;;;;;;;44.83;12.68;;;;;;;8.12;100.00;99893.20;1783924;78;21980;-88
2022/12/12 06:22:18;;;;;;;42.88;13.70;;;;;;;8.11;100.00;99896.92;1790238;79;20968;-88
2022/12/12 06:27:12;;;;;;;50.98;14.13;;;;;;;8.08;100.00;99885.91;1666532;83;21021;-88
2022/12/12 06:29:38;;;;;;;35.88;12.43;;;;;;;8.06;100.00;99881.33;1663944;84;21916;-87
2022/12/12 06:32:05;;;;;;;38.35;12.65;;;;;;;8.04;100.00;99865.51;1663850;84;22275;-87
2022/12/12 06:34:31;;;;;;;36.68;12.40;;;;;;;8.02;100.00;99856.91;1686439;83;21562;-87
2022/12/12 06:36:57;;;;;;;41.50;13.60;;;;;;;8.01;100.00;99850.47;1673701;84;21693;-87
2022/12/12 06:39:27;;;;;;;43.52;13.40;;;;;;;8.00;100.00;99848.33;1686173;83;21124;-87
2022/12/12 06:41:53;;;;;;;36.38;12.23;;;;;;;8.02;100.00;99856.10;1686813;83;21634;-88
2022/12/12 06:44:19;;;;;;;32.83;11.85;;;;;;;8.04;100.00;99864.16;1663617;84;21197;-88
2022/12/12 06:46:45;;;;;;;42.70;12.53;;;;;;;8.07;100.00;99861.50;1657712;84;21654;-88
2022/12/12 06:49:13;;;;;;;38.88;12.40;;;;;;;8.10;100.00;99874.39;1665599;84;21149;-86
2022/12/12 06:51:43;;;;;;;34.60;11.73;;;;;;;8.15;100.00;99871.74;1639741;84;21077;-87
2022/12/12 06:54:16;;;;;;;43.73;13.48;;;;;;;8.15;100.00;99879.25;1633156;85;21001;-86
2022/12/12 06:56:43;;;;;;;;;;;;;;;8.16;100.00;99877.38;1637637;85;21800;-87
2022/12/12 06:59:11;;;;;;;33.55;11.73;;;;;;;8.17;100.00;99871.73;1637336;85;20292;-86
2022/12/12 07:01:38;;;;;;;33.30;12.60;;;;;;;8.22;100.00;99876.86;1646851;84;21598;-86
2022/12/12 07:04:04;;;;;;;35.60;13.22;;;;;;;8.21;100.00;99861.30;1637826;85;21074;-86
2022/12/12 07:06:31;;;;;;;34.38;11.33;;;;;;;8.18;100.00;99860.48;1634653;85;21013;-87
2022/12/12 07:08:59;;;;;;;41.45;12.70;;;;;;;8.19;100.00;99850.01;1608285;85;21135;-86
2022/12/12 07:11:26;;;;;;;36.20;13.00;;;;;;;8.17;100.00;99855.63;1625866;86;21491;-86
2022/12/12 07:13:55;;;;;;;40.10;13.58;;;;;;;8.26;100.00;99858.61;1621745;85;21078;-86
2022/12/12 07:16:21;;;;;;;38.80;13.18;;;;;;;8.29;100.00;99858.09;1625436;85;21662;-86
2022/12/12 07:18:47;;;;;;;34.67;12.65;;;;;;;8.38;100.00;99847.66;1630086;85;21808;-86
2022/12/12 07:21:17;;;;;;;34.70;11.83;;;;;;;8.38;100.00;99847.66;1628526;85;21179;-86
2022/12/12 07:23:44;;;;;;;32.78;11.68;;;;;;;8.39;100.00;99855.48;1625076;85;20979;-86
2022/12/12 07:26:15;;;;;;;34.13;10.85;;;;;;;8.43;100.00;99862.47;1629673;85;21042;-85
2022/12/12 07:28:41;;;;;;;35.92;11.08;;;;;;;8.46;100.00;99870.00;1623812;87;20999;-85
2022/12/12 07:31:10;;;;;;;40.12;12.98;;;;;;;8.48;100.00;99878.61;1710199;80;20952;-85
2022/12/12 07:33:37;;;;;;;37.75;11.48;;;;;;;8.53;100.00;99898.77;1729800;81;21252;-85
2022/12/12 07:36:05;;;;;;;37.10;11.50;;;;;;;8.59;100.00;99909.80;1743694;81;21110;-86
2022/12/12 07:38:31;;;;;;;33.95;11.38;;;;;;;8.66;100.00;99923.52;1722433;81;21047;-86
2022/12/12 07:41:07;;;;;;;36.85;12.98;;;;;;;8.63;100.00;99928.88;1743769;80;21512;-85
2022/12/12 07:43:42;;;;;;;39.95;12.33;;;;;;;8.73;100.00;99930.24;1745675;80;21055;-86
2022/12/12 07:46:12;;;;;;;34.70;12.43;;;;;;;8.75;100.00;99914.67;1746331;80;22021;-86
2022/12/12 07:48:38;;;;;;;32.50;12.00;;;;;;;8.73;100.00;99911.98;1772072;78;20968;-86
2022/12/12 07:51:04;;;;;;;38.80;13.13;;;;;;;8.66;100.00;99918.14;1799486;79;20972;-85
2022/12/12 07:53:30;;;;;;;41.85;12.93;;;;;;;8.69;100.00;99916.28;1770608;78;21055;-86
2022/12/12 07:55:56;;;;;;;38.25;12.33;;;;;;;8.68;100.00;99911.95;1767041;79;21062;-86
2022/12/12 07:58:23;;;;;;;36.63;12.10;;;;;;;8.72;100.00;99910.37;1792556;78;21970;-85
2022/12/12 08:00:49;;;;;;;36.00;11.65;;;;;;;8.75;100.00;99904.47;1786764;78;20997;-85
2022/12/12 08:03:16;;;;;;;36.33;11.45;;;;;;;8.75;100.00;99897.75;1796071;78;21015;-87
2022/12/12 08:05:42;;;;;;;38.88;12.23;;;;;;;8.73;100.00;99896.66;1801644;79;20961;-89
2022/12/12 08:08:09;;;;;;;37.08;11.25;;;;;;;8.79;100.00;99892.11;1797425;77;20931;-87
2022/12/12 08:10:39;;;;;;;41.10;12.03;;;;;;;8.76;100.00;99884.58;1800064;78;21303;-87
2022/12/12 08:13:05;;;;;;;39.40;13.50;;;;;;;8.80;100.00;99884.34;1777915;78;21075;-87
2022/12/12 08:15:32;;;;;;;32.65;11.12;;;;;;;8.81;100.00;99889.44;1766188;79;21492;-89
2022/12/12 08:17:58;;;;;;;32.95;11.25;;;;;;;8.83;100.00;99876.55;1772823;79;21077;-86
2022/12/12 08:20:24;;;;;;;35.25;11.73;;;;;;;8.89;100.00;99878.72;1792875;79;21523;-85
2022/12/12 08:22:50;;;;;;;35.55;12.03;;;;;;;8.97;100.00;99888.12;1788113;79;21124;-87
2022/12/12 08:25:16;;;;;;;34.50;11.40;;;;;;;8.96;100.00;99867.70;1775369;79;20940;-87
2022/12/12 08:27:42;;;;;;;36.80;12.20;;;;;;;9.02;100.00;99891.63;1768394;79;21085;-88
2022/12/12 08:30:09;;;;;;;30.80;11.20;;;;;;;9.10;100.00;99887.61;1800733;77;21581;-87
2022/12/12 08:32:36;;;;;;;33.50;12.07;;;;;;;9.18;100.00;99888.43;1799578;78;21070;-87
2022/12/12 08:35:02;;;;;;;39.00;12.13;;;;;;;9.25;100.00;99886.81;1802866;78;21129;-87
2022/12/12 08:37:29;;;;;;;29.65;11.25;;;;;;;9.31;100.00;99892.46;1795766;79;21054;-88
2022/12/12 08:39:56;;;;;;;33.60;11.28;;;;;;;9.30;100.00;99878.76;1786129;78;21445;-88
2022/12/12 08:42:22;;;;;;;32.53;11.22;;;;;;;9.34;100.00;99867.72;1787308;78;20924;-88
2022/12/12 08:44:49;;;;;;;36.42;11.03;;;;;;;9.39;100.00;99855.63;1805126;79;20830;-87
2022/12/12 08:47:15;;;;;;;32.90;11.38;;;;;;;9.39;100.00;99856.17;1797493;79;21149;-87
2022/12/12 08:49:41;;;;;;;33.02;12.37;;;;;;;9.37;100.00;99860.45;1785802;78;21047;-88
2022/12/12 08:52:08;;;;;;;34.35;11.43;;;;;;;9.38;100.00;99859.38;1790578;78;21127;-87
2022/12/12 08:54:36;;;;;;;33.55;11.70;;;;;;;9.40;100.00;99858.58;1796121;78;21002;-86
2022/12/12 08:57:03;;;;;;;34.75;10.90;;;;;;;9.40;100.00;99851.85;1788411;78;20964;-87
2022/12/12 08:59:29;;;;;;;34.08;11.50;;;;;;;9.47;100.00;99862.33;1796553;78;21082;-86
2022/12/12 09:01:55;;;;;;;32.58;10.80;;;;;;;9.47;100.00;99860.47;1792291;79;21030;-86
2022/12/12 09:04:21;;;;;;;40.05;10.80;;;;;;;9.48;100.00;99859.38;1768425;79;20975;-85
2022/12/12 09:06:48;;;;;;;31.87;12.18;;;;;;;9.46;100.00;99868.80;1802548;79;21012;-84
2022/12/12 09:09:14;;;;;;;39.80;11.80;;;;;;;9.46;100.00;99864.22;1788383;78;21348;-85
2022/12/12 09:11:40;;;;;;;33.92;12.73;;;;;;;9.48;100.00;99870.14;1794455;78;21073;-85
2022/12/12 09:14:06;;;;;;;37.98;13.65;;;;;;;9.48;100.00;99858.58;1793693;78;21066;-84
2022/12/12 09:16:32;;;;;;;49.77;14.95;;;;;;;9.47;100.00;99863.16;1788723;78;21015;-85
2022/12/12 09:18:59;;;;;;;169.35;51.15;;;;;;;9.47;100.00;99856.95;1783892;78;21067;-85
2022/12/12 09:21:25;;;;;;;56.98;18.40;;;;;;;9.48;100.00;99854.00;1795231;78;20979;-85
2022/12/12 09:23:51;;;;;;;103.40;35.05;;;;;;;9.49;100.00;99852.11;1794318;78;21139;-87
2022/12/12 09:26:17;;;;;;;66.95;20.08;;;;;;;9.55;100.00;99859.09;1767474;78;21658;-85
2022/12/12 09:28:43;;;;;;;54.65;15.43;;;;;;;9.55;100.00;99858.55;1802483;77;20903;-86
2022/12/12 09:31:11;;;;;;;65.78;21.95;;;;;;;9.52;100.00;99845.65;1802263;79;21161;-84
2022/12/12 09:33:38;;;;;;;47.08;16.10;;;;;;;9.50;100.00;99843.79;1797593;78;21020;-84
2022/12/12 09:36:07;;;;;;;50.50;17.85;;;;;;;9.49;100.00;99840.81;1799074;78;21863;-84
2022/12/12 09:38:34;;;;;;;55.45;18.62;;;;;;;9.46;100.00;99835.17;1798527;78;21094;-84
2022/12/12 09:41:17;;;;;;;40.67;13.78;;;;;;;9.47;100.00;99837.61;1795466;78;21498;-85
2022/12/12 09:44:01;;;;;;;46.25;15.25;;;;;;;9.42;100.00;99838.16;1809728;78;21465;-85
2022/12/12 09:46:36;;;;;;;;;;;;;;;9.40;100.00;99830.34;1693309;84;21105;-85
2022/12/12 09:49:23;;;;;;;43.78;13.75;;;;;;;9.38;100.00;99831.14;1626068;87;21346;-85
2022/12/12 09:51:51;;;;;;;42.85;13.78;;;;;;;9.34;100.00;99823.36;1612662;87;21152;-83
2022/12/12 09:54:21;;;;;;;56.00;19.77;;;;;;;9.33;100.00;99823.09;1609934;87;21038;-84
2022/12/12 09:57:10;;;;;;;41.65;15.05;;;;;;;9.31;100.00;99823.90;1605664;87;21631;-84
2022/12/12 10:00:02;;;;;;;44.23;13.32;;;;;;;9.30;100.00;99820.95;1587038;88;21123;-85
2022/12/12 10:02:51;;;;;;;36.38;12.75;;;;;;;9.26;100.00;99817.17;1590344;88;21146;-84
2022/12/12 10:05:46;;;;;;;37.80;12.93;;;;;;;9.23;100.00;99809.11;1599896;87;21519;-84
2022/12/12 10:08:18;;;;;;;42.15;12.73;;;;;;;9.23;100.00;99813.14;1529071;91;21746;-85
2022/12/12 10:10:48;;;;;;;49.45;13.83;;;;;;;9.19;100.00;99808.59;1525715;92;21121;-84
2022/12/12 10:13:18;;;;;;;40.85;12.82;;;;;;;9.18;100.00;99808.33;1520860;92;21112;-85
2022/12/12 10:15:55;;;;;;;39.35;13.10;;;;;;;9.13;100.00;99802.41;1535213;91;21130;-85
2022/12/12 10:18:29;;;;;;;48.33;12.90;;;;;;;9.12;100.00;99810.21;1515328;91;21619;-87
2022/12/12 10:21:00;;;;;;;39.85;13.38;;;;;;;9.14;100.00;99794.59;1526304;92;21106;-88
2022/12/12 10:23:40;;;;;;;42.30;13.20;;;;;;;9.12;100.00;99787.87;1474790;95;21579;-88
2022/12/12 10:26:11;;;;;;;40.35;12.88;;;;;;;9.09;100.00;99787.36;1484935;93;21128;-88
2022/12/12 10:28:37;;;;;;;50.43;15.23;;;;;;;9.07;100.00;99788.16;1486759;95;21560;-89
2022/12/12 10:31:47;;;;;;;38.92;13.60;;;;;;;9.09;100.00;99800.00;1489949;94;21690;-89
2022/12/12 10:34:40;;;;;;;52.75;15.00;;;;;;;9.06;100.00;99800.00;1490554;93;21192;-90
2022/12/12 10:37:37;;;;;;;39.67;13.62;;;;;;;8.99;100.00;99781.17;1508124;93;21560;-89
2022/12/12 10:40:17;;;;;;;39.13;13.45;;;;;;;9.01;100.00;99788.44;1454393;97;21696;-89
2022/12/12 10:43:01;;;;;;;44.90;14.18;;;;;;;8.94;100.00;99784.69;1491262;91;21361;-88
2022/12/12 10:45:47;;;;;;;42.35;12.13;;;;;;;8.93;100.00;99795.69;1589142;87;21073;-88
2022/12/12 10:48:13;;;;;;;43.95;12.47;;;;;;;8.90;100.00;99784.94;1631423;86;21077;-88
2022/12/12 10:50:49;;;;;;;35.83;10.98;;;;;;;8.86;100.00;99786.02;1631470;87;20887;-87
2022/12/12 10:53:15;;;;;;;37.48;12.20;;;;;;;8.87;100.00;99790.84;1629248;87;21515;-87
2022/12/12 10:56:01;;;;;;;49.00;13.95;;;;;;;8.81;100.00;99778.48;1626938;87;21224;-87
2022/12/12 10:58:40;;;;;;;38.95;11.85;;;;;;;8.74;100.00;99777.42;1576337;90;21101;-86
2022/12/12 11:01:19;;;;;;;42.83;12.60;;;;;;;8.75;100.00;99775.53;1577163;90;21018;-87
2022/12/12 11:03:49;;;;;;;36.55;12.20;;;;;;;8.73;100.00;99783.84;1579573;90;21252;-87
2022/12/12 11:06:45;;;;;;;39.63;12.78;;;;;;;8.72;100.00;99785.47;1529623;93;21143;-86
2022/12/12 11:09:26;;;;;;;32.20;11.15;;;;;;;8.68;100.00;99784.38;1471254;96;21174;-87
2022/12/12 11:12:13;;;;;;;39.50;12.75;;;;;;;8.61;100.00;99790.81;1467348;96;21075;-87
2022/12/12 11:14:50;;;;;;;34.88;12.10;;;;;;;8.62;100.00;99787.62;1472577;96;21308;-86
2022/12/12 11:17:29;;;;;;;40.52;12.95;;;;;;;8.59;100.00;99785.47;1453726;95;21157;-86
2022/12/12 11:20:02;;;;;;;39.83;12.30;;;;;;;8.55;100.00;99787.85;1504864;90;21055;-86
2022/12/12 11:22:31;;;;;;;;;;;;;;;8.52;100.00;99791.61;1564689;89;21216;-86
2022/12/12 11:24:57;;;;;;;42.83;11.78;;;;;;;8.49;100.00;99776.03;1573997;89;20200;-85
2022/12/12 11:27:31;;;;;;;40.43;12.37;;;;;;;8.49;100.00;99784.09;1572768;90;21029;-86
2022/12/12 11:30:01;;;;;;;43.70;12.95;;;;;;;8.50;100.00;99787.03;1543522;89;21228;-86
2022/12/12 11:32:43;;;;;;;41.18;12.68;;;;;;;8.45;100.00;99791.88;1578058;89;21054;-86
2022/12/12 11:35:35;;;;;;;41.37;11.75;;;;;;;8.43;100.00;99788.64;1571321;89;21133;-86
2022/12/12 11:38:07;;;;;;;39.08;12.03;;;;;;;8.42;100.00;99780.33;1570415;90;21108;-87
2022/12/12 11:40:37;;;;;;;36.98;13.32;;;;;;;8.41;100.00;99777.34;1539465;92;21115;-87
2022/12/12 11:43:20;;;;;;;43.30;11.95;;;;;;;8.41;100.00;99776.00;1526929;92;21111;-86
2022/12/12 11:46:07;;;;;;;38.00;11.53;;;;;;;8.42;100.00;99768.24;1530644;92;21942;-86
2022/12/12 11:48:53;;;;;;;37.03;11.18;;;;;;;8.43;100.00;99771.73;1513375;93;21205;-86
2022/12/12 11:54:30;;;;;;;29.12;9.95;;;;;;;8.46;100.00;99766.63;1450251;98;21117;-85
2022/12/12 11:57:07;;;;;;;33.33;10.68;;;;;;;8.48;100.00;99767.17;1445467;98;21636;-86
2022/12/12 11:59:53;;;;;;;32.93;11.20;;;;;;;8.44;100.00;99770.11;1446446;98;21031;-86